createdAt,value
2018-07-02T00:02:12.156Z,15.20
2018-07-02T00:04:46.483Z,15.20
2018-07-02T00:07:23.236Z,15.20
2018-07-02T00:09:57.623Z,15.10
2018-07-02T00:12:31.980Z,15.10
2018-07-02T00:15:06.644Z,15.00
2018-07-02T00:17:40.908Z,15.00
2018-07-02T00:20:15.134Z,15.00
2018-07-02T00:22:49.484Z,15.10
2018-07-02T00:25:23.753Z,15.00
2018-07-02T00:27:58.118Z,14.80
2018-07-02T00:30:32.399Z,14.80
2018-07-02T00:33:06.643Z,14.80
2018-07-02T00:35:40.971Z,14.80
2018-07-02T00:38:15.458Z,14.80
2018-07-02T00:40:49.716Z,14.80
2018-07-02T00:43:23.942Z,14.70
2018-07-02T00:45:58.359Z,14.60
2018-07-02T00:48:32.600Z,14.60
2018-07-02T00:51:07.035Z,14.60
2018-07-02T00:53:41.306Z,14.60
2018-07-02T00:58:49.900Z,14.40
2018-07-02T01:01:26.468Z,14.30
2018-07-02T01:04:01.569Z,14.50
2018-07-02T01:06:36.062Z,14.40
2018-07-02T01:09:10.833Z,14.30
2018-07-02T01:11:45.181Z,14.40
2018-07-02T01:14:19.575Z,14.30
2018-07-02T01:16:53.930Z,14.30
2018-07-02T01:19:28.310Z,14.30
2018-07-02T01:22:02.795Z,14.10
2018-07-02T01:27:11.161Z,14.20
2018-07-02T01:29:45.437Z,14.20
2018-07-02T01:32:19.958Z,14.10
2018-07-02T01:34:54.266Z,14.10
2018-07-02T01:37:28.579Z,14.10
2018-07-02T01:40:03.126Z,14.20
2018-07-02T01:42:37.594Z,14.10
2018-07-02T01:47:45.931Z,14.00
2018-07-02T01:50:20.105Z,14.00
2018-07-02T01:52:54.453Z,14.00
2018-07-02T01:55:28.954Z,14.00
2018-07-02T02:05:46.015Z,14.00
2018-07-02T02:08:20.644Z,14.00
2018-07-02T02:10:55.462Z,13.90
2018-07-02T02:13:29.972Z,13.70
2018-07-02T02:16:04.439Z,13.50
2018-07-02T02:18:38.789Z,13.30
2018-07-02T02:21:13.276Z,13.20
2018-07-02T02:26:21.656Z,13.00
2018-07-02T02:28:56.001Z,13.00
2018-07-02T02:34:04.556Z,13.00
2018-07-02T02:36:39.041Z,13.00
2018-07-02T02:39:13.533Z,13.00
2018-07-02T02:41:47.982Z,13.10
2018-07-02T02:44:22.411Z,13.20
2018-07-02T02:46:56.743Z,13.20
2018-07-02T02:49:31.217Z,13.10
2018-07-02T02:52:05.752Z,13.10
2018-07-02T02:54:40.115Z,13.10
2018-07-02T02:57:14.711Z,12.80
2018-07-02T02:59:49.139Z,12.60
2018-07-02T03:02:23.418Z,12.50
2018-07-02T03:04:57.953Z,12.50
2018-07-02T03:07:32.365Z,12.50
2018-07-02T03:10:06.842Z,12.40
2018-07-02T03:12:41.229Z,12.20
2018-07-02T03:15:15.541Z,12.20
2018-07-02T03:20:23.916Z,12.00
2018-07-02T03:22:58.173Z,11.90
2018-07-02T03:25:32.509Z,11.70
2018-07-02T03:28:06.923Z,11.40
2018-07-02T03:30:41.251Z,11.40
2018-07-02T03:35:49.675Z,11.30
2018-07-02T03:38:23.994Z,11.10
2018-07-02T03:40:58.315Z,11.20
2018-07-02T03:43:32.720Z,11.30
2018-07-02T03:46:07.106Z,11.20
2018-07-02T03:48:41.502Z,11.30
2018-07-02T03:58:58.533Z,11.40
2018-07-02T04:09:15.149Z,11.60
2018-07-02T04:11:49.433Z,11.70
2018-07-02T04:14:23.802Z,11.70
2018-07-02T04:16:58.097Z,11.70
2018-07-02T04:19:32.366Z,11.70
2018-07-02T04:22:06.591Z,11.60
2018-07-02T04:27:15.026Z,11.70
2018-07-02T04:29:49.383Z,11.80
2018-07-02T04:32:23.640Z,11.80
2018-07-02T04:34:58.000Z,11.90
2018-07-02T04:37:32.342Z,12.10
2018-07-02T04:40:06.684Z,12.10
2018-07-02T04:42:40.938Z,12.30
2018-07-02T04:45:15.233Z,12.50
2018-07-02T04:47:50.003Z,12.70
2018-07-02T04:50:24.217Z,12.90
2018-07-02T04:52:58.665Z,13.00
2018-07-02T04:58:07.166Z,13.20
2018-07-02T05:00:41.388Z,13.30
2018-07-02T05:03:15.817Z,13.30
2018-07-02T05:05:50.209Z,13.40
2018-07-02T05:10:59.353Z,13.60
2018-07-02T05:13:33.591Z,13.50
2018-07-02T05:16:07.915Z,13.50
2018-07-02T05:18:42.179Z,13.50
2018-07-02T05:21:16.523Z,13.60
2018-07-02T05:23:50.738Z,13.70
2018-07-02T05:26:25.231Z,13.80
2018-07-02T05:28:59.488Z,13.90
2018-07-02T05:31:33.834Z,13.90
2018-07-02T05:34:08.186Z,14.00
2018-07-02T05:36:42.550Z,14.10
2018-07-02T05:39:16.787Z,14.10
2018-07-02T05:41:51.154Z,14.30
2018-07-02T05:44:25.625Z,14.30
2018-07-02T05:47:00.023Z,14.40
2018-07-02T05:49:34.425Z,14.50
2018-07-02T05:52:08.799Z,14.60
2018-07-02T05:54:43.195Z,14.70
2018-07-02T05:57:17.497Z,14.70
2018-07-02T05:59:51.860Z,14.80
2018-07-02T06:02:26.256Z,14.90
2018-07-02T06:05:00.580Z,15.00
2018-07-02T06:07:34.906Z,15.00
2018-07-02T06:12:43.581Z,15.20
2018-07-02T06:15:18.092Z,15.30
2018-07-02T06:17:52.609Z,15.30
2018-07-02T06:20:27.102Z,15.30
2018-07-02T06:23:01.530Z,15.30
2018-07-02T06:25:35.849Z,15.30
2018-07-02T06:28:10.251Z,15.40
2018-07-02T06:30:44.582Z,15.50
2018-07-02T06:33:19.004Z,15.70
2018-07-02T06:35:53.518Z,15.60
2018-07-02T06:41:02.298Z,15.70
2018-07-02T06:46:11.323Z,15.90
2018-07-02T06:48:45.689Z,16.10
2018-07-02T06:51:20.160Z,16.10
2018-07-02T06:53:54.459Z,15.90
2018-07-02T06:56:28.968Z,15.60
2018-07-02T07:01:37.383Z,16.30
2018-07-02T07:04:11.765Z,16.40
2018-07-02T07:06:46.108Z,16.40
2018-07-02T07:11:54.606Z,16.50
2018-07-02T07:14:28.950Z,16.50
2018-07-02T07:17:03.231Z,16.50
2018-07-02T07:19:37.664Z,16.50
2018-07-02T07:22:11.979Z,16.70
2018-07-02T07:24:46.397Z,16.90
2018-07-02T07:27:20.738Z,17.10
2018-07-02T07:29:55.062Z,17.30
2018-07-02T07:32:29.666Z,17.30
2018-07-02T07:35:04.084Z,17.20
2018-07-02T07:37:38.508Z,17.30
2018-07-02T07:40:12.803Z,17.40
2018-07-02T07:42:47.122Z,17.50
2018-07-02T07:45:21.681Z,17.60
2018-07-02T07:50:30.310Z,17.90
2018-07-02T07:53:04.643Z,18.20
2018-07-02T07:55:38.968Z,18.40
2018-07-02T07:58:13.368Z,18.50
2018-07-02T08:00:47.597Z,18.50
2018-07-02T08:03:21.970Z,18.50
2018-07-02T08:05:56.417Z,18.70
2018-07-02T08:11:04.842Z,18.90
2018-07-02T08:16:13.246Z,18.90
2018-07-02T08:21:21.580Z,19.30
2018-07-02T08:23:55.933Z,19.40
2018-07-02T08:26:30.234Z,19.60
2018-07-02T08:29:04.713Z,19.70
2018-07-02T08:31:39.029Z,19.90
2018-07-02T08:34:13.399Z,20.10
2018-07-02T08:36:47.724Z,20.10
2018-07-02T08:39:21.978Z,20.10
2018-07-02T08:41:56.368Z,20.10
2018-07-02T08:44:30.678Z,20.20
2018-07-02T08:47:04.980Z,20.20
2018-07-02T08:49:39.232Z,20.30
2018-07-02T08:52:13.515Z,20.50
2018-07-02T08:54:47.971Z,20.60
2018-07-02T08:59:56.561Z,20.90
2018-07-02T09:02:30.885Z,21.00
2018-07-02T09:05:05.283Z,21.00
2018-07-02T09:10:13.672Z,20.90
2018-07-02T09:15:22.108Z,21.10
2018-07-02T09:17:56.458Z,21.20
2018-07-02T09:20:31.039Z,21.20
2018-07-02T09:23:05.445Z,21.40
2018-07-02T09:28:14.040Z,21.20
2018-07-02T09:30:48.716Z,21.40
2018-07-02T09:33:22.929Z,21.60
2018-07-02T09:35:57.366Z,21.70
2018-07-02T09:38:31.858Z,21.60
2018-07-02T09:41:06.184Z,21.60
2018-07-02T09:43:40.465Z,21.60
2018-07-02T09:48:49.007Z,21.60
2018-07-02T09:51:23.418Z,21.70
2018-07-02T09:56:32.873Z,21.70
2018-07-02T09:59:07.341Z,21.80
2018-07-02T10:01:41.661Z,21.90
2018-07-02T10:04:15.906Z,22.00
2018-07-02T10:06:50.095Z,22.10
2018-07-02T10:09:24.386Z,22.20
2018-07-02T10:11:58.857Z,22.20
2018-07-02T10:14:33.135Z,22.30
2018-07-02T10:17:07.522Z,22.30
2018-07-02T10:19:41.797Z,22.50
2018-07-02T10:22:16.392Z,22.60
2018-07-02T10:24:50.780Z,22.50
2018-07-02T10:35:07.847Z,22.70
2018-07-02T10:37:42.388Z,22.90
2018-07-02T10:40:16.830Z,22.90
2018-07-02T10:42:51.303Z,22.90
2018-07-02T10:45:25.652Z,23.00
2018-07-02T10:48:00.067Z,23.00
2018-07-02T10:50:34.445Z,23.10
2018-07-02T10:53:08.975Z,23.10
2018-07-02T10:58:17.305Z,23.30
2018-07-02T11:00:51.732Z,23.50
2018-07-02T11:03:26.204Z,23.50
2018-07-02T11:06:00.498Z,23.60
2018-07-02T11:11:08.890Z,23.50
2018-07-02T11:13:43.169Z,23.50
2018-07-02T11:16:17.516Z,23.60
2018-07-02T11:18:51.963Z,23.70
2018-07-02T11:21:26.310Z,23.60
2018-07-02T11:24:00.792Z,23.60
2018-07-02T11:26:35.160Z,23.60
2018-07-02T11:29:09.485Z,23.60
2018-07-02T11:31:43.858Z,23.70
2018-07-02T11:34:18.389Z,23.80
2018-07-02T11:36:52.735Z,23.90
2018-07-02T11:39:27.146Z,23.90
2018-07-02T11:42:01.436Z,24.10
2018-07-02T11:44:35.852Z,24.10
2018-07-02T11:47:10.303Z,24.10
2018-07-02T11:49:44.835Z,24.20
2018-07-02T11:52:19.377Z,24.40
2018-07-02T11:54:53.760Z,24.50
2018-07-02T11:57:28.587Z,24.50
2018-07-02T12:00:02.891Z,24.40
2018-07-02T12:02:37.622Z,24.40
2018-07-02T12:05:12.024Z,24.50
2018-07-02T12:10:20.542Z,24.70
2018-07-02T12:12:54.871Z,24.60
2018-07-02T12:15:29.307Z,24.70
2018-07-02T12:20:37.707Z,24.70
2018-07-02T12:23:11.990Z,24.70
2018-07-02T12:25:46.284Z,24.70
2018-07-02T12:28:20.663Z,24.70
2018-07-02T12:33:28.968Z,25.00
2018-07-02T12:36:03.115Z,25.00
2018-07-02T12:38:37.465Z,25.00
2018-07-02T12:41:11.719Z,25.00
2018-07-02T12:43:45.931Z,25.00
2018-07-02T12:46:20.261Z,25.00
2018-07-02T12:48:54.597Z,25.00
2018-07-02T12:51:29.168Z,25.10
2018-07-02T12:54:04.110Z,25.20
2018-07-02T12:56:39.016Z,25.20
2018-07-02T12:59:15.471Z,25.20
2018-07-02T13:01:49.855Z,25.30
2018-07-02T13:04:24.146Z,25.30
2018-07-02T13:06:58.578Z,25.30
2018-07-02T13:12:07.146Z,25.20
2018-07-02T13:17:15.611Z,25.40
2018-07-02T13:19:49.863Z,25.40
2018-07-02T13:22:24.296Z,25.30
2018-07-02T13:24:58.603Z,25.50
2018-07-02T13:27:33.283Z,25.60
2018-07-02T13:30:07.664Z,25.70
2018-07-02T13:35:15.963Z,25.60
2018-07-02T13:37:50.333Z,25.50
2018-07-02T13:40:24.691Z,25.60
2018-07-02T13:42:59.130Z,25.50
2018-07-02T13:45:33.384Z,25.60
2018-07-02T13:48:07.781Z,25.60
2018-07-02T13:50:42.116Z,25.70
2018-07-02T13:53:16.692Z,25.70
2018-07-02T13:55:51.085Z,25.80
2018-07-02T13:58:25.339Z,25.70
2018-07-02T14:00:59.568Z,25.70
2018-07-02T14:03:34.014Z,26.00
2018-07-02T14:06:08.460Z,26.10
2018-07-02T14:08:42.739Z,26.20
2018-07-02T14:11:17.274Z,26.20
2018-07-02T14:13:51.726Z,26.20
2018-07-02T14:16:26.123Z,26.30
2018-07-02T14:21:34.799Z,26.50
2018-07-02T14:26:43.343Z,26.60
2018-07-02T14:29:17.713Z,26.50
2018-07-02T14:31:51.975Z,26.60
2018-07-02T14:34:26.420Z,26.60
2018-07-02T14:39:43.877Z,26.40
2018-07-02T14:42:19.857Z,26.30
2018-07-02T14:44:55.466Z,26.40
2018-07-02T14:47:36.281Z,26.60
2018-07-02T14:50:12.847Z,26.90
2018-07-02T14:52:47.083Z,27.00
2018-07-02T14:55:21.434Z,27.20
2018-07-02T14:57:55.679Z,27.30
2018-07-02T15:00:30.008Z,27.50
2018-07-02T15:03:04.500Z,27.40
2018-07-02T15:05:38.835Z,27.30
2018-07-02T15:08:13.298Z,27.30
2018-07-02T15:10:47.748Z,27.00
2018-07-02T15:13:22.138Z,26.90
2018-07-02T15:15:56.551Z,26.80
2018-07-02T15:18:31.058Z,26.90
2018-07-02T15:21:05.506Z,26.80
2018-07-02T15:23:39.794Z,26.80
2018-07-02T15:26:14.134Z,26.90
2018-07-02T15:28:48.448Z,27.20
2018-07-02T15:31:22.835Z,27.10
2018-07-02T15:33:57.358Z,27.00
2018-07-02T15:36:31.904Z,26.90
2018-07-02T15:41:41.482Z,26.70
2018-07-02T15:44:15.862Z,26.70
2018-07-02T15:57:07.479Z,26.90
2018-07-02T15:59:41.856Z,26.70
2018-07-02T16:02:16.580Z,26.70
2018-07-02T16:04:50.935Z,27.10
2018-07-02T16:07:25.237Z,27.40
2018-07-02T16:09:59.429Z,27.60
2018-07-02T16:12:33.858Z,27.30
2018-07-02T16:15:08.121Z,26.90
2018-07-02T16:17:42.458Z,26.50
2018-07-02T16:20:16.860Z,26.80
2018-07-02T16:22:51.351Z,27.30
2018-07-02T16:25:26.030Z,27.70
2018-07-02T16:28:00.607Z,28.00
2018-07-02T16:30:35.125Z,28.70
2018-07-02T16:33:10.007Z,29.40
2018-07-02T16:35:44.775Z,29.80
2018-07-02T16:38:19.480Z,30.70
2018-07-02T16:40:54.160Z,31.40
2018-07-02T16:43:28.966Z,31.60
2018-07-02T16:46:03.566Z,31.70
2018-07-02T16:48:38.118Z,31.70
2018-07-02T16:51:12.494Z,31.90
2018-07-02T16:53:47.090Z,32.30
2018-07-02T16:56:21.805Z,32.50
2018-07-02T16:58:56.511Z,32.80
2018-07-02T17:01:31.076Z,33.10
2018-07-02T17:04:06.029Z,33.30
2018-07-02T17:06:40.701Z,33.40
2018-07-02T17:09:15.510Z,33.40
2018-07-02T17:11:50.101Z,33.30
2018-07-02T17:14:24.805Z,33.10
2018-07-02T17:16:59.631Z,33.30
2018-07-02T17:19:34.094Z,33.40
2018-07-02T17:22:08.391Z,33.40
2018-07-02T17:24:42.775Z,33.50
2018-07-02T17:27:17.263Z,33.20
2018-07-02T17:29:51.709Z,31.80
2018-07-02T17:35:00.489Z,32.40
2018-07-02T17:37:34.961Z,32.20
2018-07-02T17:40:09.395Z,32.60
2018-07-02T17:42:43.863Z,33.10
2018-07-02T17:45:18.167Z,33.20
2018-07-02T17:47:52.663Z,33.30
2018-07-02T17:50:27.015Z,33.40
2018-07-02T17:53:01.286Z,33.30
2018-07-02T17:55:35.625Z,33.30
2018-07-02T17:58:10.108Z,33.10
2018-07-02T18:00:44.586Z,32.90
2018-07-02T18:05:53.259Z,31.80
2018-07-02T18:08:27.522Z,31.50
2018-07-02T18:11:01.961Z,30.90
2018-07-02T18:13:36.496Z,30.40
2018-07-02T18:16:10.818Z,29.90
2018-07-02T18:23:53.592Z,28.10
2018-07-02T18:26:28.091Z,27.70
2018-07-02T18:31:36.728Z,27.40
2018-07-02T18:34:11.293Z,27.20
2018-07-02T18:36:46.583Z,26.90
2018-07-02T18:39:21.243Z,26.80
2018-07-02T18:41:55.570Z,26.60
2018-07-02T18:44:29.886Z,26.40
2018-07-02T18:47:04.233Z,26.10
2018-07-02T18:49:38.636Z,25.80
2018-07-02T18:52:12.932Z,25.50
2018-07-02T18:54:47.226Z,25.00
2018-07-02T18:57:21.731Z,24.80
2018-07-02T18:59:55.999Z,24.80
2018-07-02T19:02:30.461Z,24.70
2018-07-02T19:05:05.393Z,24.50
2018-07-02T19:07:39.802Z,24.40
2018-07-02T19:10:14.030Z,24.20
2018-07-02T19:12:48.347Z,24.20
2018-07-02T19:15:22.666Z,24.00
2018-07-02T19:17:57.059Z,24.00
2018-07-02T19:23:06.013Z,23.70
2018-07-02T19:25:40.448Z,23.50
2018-07-02T19:33:23.105Z,23.20
2018-07-02T19:35:57.342Z,23.10
2018-07-02T19:38:31.603Z,23.00
2018-07-02T19:41:06.343Z,23.10
2018-07-02T19:43:40.548Z,23.00
2018-07-02T19:46:14.842Z,23.00
2018-07-02T19:48:49.219Z,22.70
2018-07-02T19:56:31.767Z,22.50
2018-07-02T19:59:06.095Z,22.40
2018-07-02T20:01:40.703Z,22.20
2018-07-02T20:04:15.122Z,22.20
2018-07-02T20:09:24.459Z,22.20
2018-07-02T20:11:58.762Z,22.10
2018-07-02T20:17:07.214Z,22.00
2018-07-02T20:19:41.769Z,21.90
2018-07-02T20:22:16.360Z,21.80
2018-07-02T20:24:50.687Z,21.90
2018-07-02T20:29:59.382Z,21.50
2018-07-02T20:32:33.920Z,21.40
2018-07-02T20:35:08.428Z,21.30
2018-07-02T20:37:42.779Z,21.20
2018-07-02T20:40:17.196Z,21.20
2018-07-02T20:42:51.629Z,21.10
2018-07-02T20:45:26.272Z,21.00
2018-07-02T20:53:08.782Z,20.90
2018-07-02T20:58:17.373Z,20.80
2018-07-02T21:00:51.673Z,20.70
2018-07-02T21:03:25.998Z,20.70
2018-07-02T21:06:00.485Z,20.60
2018-07-02T21:11:09.037Z,20.40
2018-07-02T21:13:43.667Z,20.30
2018-07-02T21:16:18.490Z,20.20
2018-07-02T21:18:53.372Z,20.00
2018-07-02T21:21:28.011Z,19.90
2018-07-02T21:24:02.498Z,19.70
2018-07-02T21:29:10.880Z,19.50
2018-07-02T21:31:45.297Z,19.30
2018-07-02T21:34:19.712Z,19.20
2018-07-02T21:36:54.063Z,18.90
2018-07-02T21:39:28.498Z,18.80
2018-07-02T21:42:02.934Z,18.80
2018-07-02T21:49:45.836Z,18.30
2018-07-02T21:52:20.672Z,18.20
2018-07-02T21:54:55.011Z,18.20
2018-07-02T21:57:29.438Z,18.30
2018-07-02T22:00:05.252Z,18.40
2018-07-02T22:05:13.692Z,18.50
2018-07-02T22:10:22.168Z,18.40
2018-07-02T22:12:56.600Z,18.40
2018-07-02T22:15:30.879Z,18.30
2018-07-02T22:18:05.246Z,18.30
2018-07-02T22:20:39.629Z,18.30
2018-07-02T22:23:28.743Z,18.10
2018-07-02T22:28:38.084Z,17.90
2018-07-02T22:31:12.479Z,17.90
2018-07-02T22:33:46.695Z,17.90
2018-07-02T22:36:21.058Z,17.80
2018-07-02T22:39:08.810Z,17.70
2018-07-02T22:41:43.311Z,17.60
2018-07-02T22:44:18.007Z,17.70
2018-07-02T22:46:52.315Z,17.60
2018-07-02T22:49:26.592Z,17.70
2018-07-02T22:57:09.142Z,17.60
2018-07-02T22:59:43.507Z,17.60
2018-07-02T23:02:17.789Z,17.60
2018-07-02T23:04:52.189Z,17.60
2018-07-02T23:10:00.750Z,17.50
2018-07-02T23:12:35.126Z,17.40
2018-07-02T23:15:09.651Z,17.40
2018-07-02T23:17:44.019Z,17.40
2018-07-02T23:20:18.382Z,17.30
2018-07-02T23:23:01.615Z,17.20
2018-07-02T23:25:35.929Z,17.30
2018-07-02T23:28:10.426Z,17.30
2018-07-02T23:30:44.740Z,17.20
2018-07-02T23:33:19.121Z,17.20
2018-07-02T23:38:27.625Z,17.10
2018-07-02T23:41:01.897Z,17.00
2018-07-02T23:43:36.422Z,16.90
2018-07-02T23:46:10.853Z,16.90
2018-07-02T23:51:19.798Z,16.90
2018-07-02T23:53:54.475Z,16.50
2018-07-02T23:56:28.924Z,16.40
2018-07-02T23:59:03.427Z,16.40
